Time;durP1;ratioP1;P1;durP2;ratioP2;P2;SDS_P1;SDS_P2;PMS_P1;PMS_P2;Temp;Humidity;BMP_temperature;BMP_pressure;BME280_temperature;BME280_humidity;BME280_pressure;Samples;Min_cycle;Max_cycle;Signal;HPM_P1;HPM_P2
2023/05/15 00:00:09;;;;;;;22.50;12.90;;;;;;;13.45;84.70;99949.31;3132882;28;20106;-69
2023/05/15 00:01:40;;;;;;;21.50;12.38;;;;;;;13.42;84.52;99943.31;3129869;28;20053;-70
2023/05/15 00:03:12;;;;;;;20.92;12.02;;;;;;;13.45;84.54;99939.69;3127705;28;20544;-70
2023/05/15 00:04:44;;;;;;;20.63;12.45;;;;;;;13.37;84.61;99923.59;3132438;28;20107;-70
2023/05/15 00:06:17;;;;;;;21.80;14.27;;;;;;;13.46;84.45;99930.91;3132771;28;20051;-70
2023/05/15 00:07:49;;;;;;;23.88;13.40;;;;;;;13.28;84.70;99905.75;3133086;28;20052;-68
2023/05/15 00:09:21;;;;;;;28.92;13.43;;;;;;;13.43;84.46;99926.69;3140978;28;20053;-70
2023/05/15 00:10:53;;;;;;;23.40;13.52;;;;;;;13.48;84.49;99926.44;3132689;28;20048;-70
2023/05/15 00:12:24;;;;;;;27.30;14.25;;;;;;;13.50;84.43;99921.13;3132328;28;20133;-70
2023/05/15 00:13:56;;;;;;;26.63;13.90;;;;;;;13.52;84.71;99916.66;3132846;28;20431;-70
2023/05/15 00:15:28;;;;;;;23.05;12.95;;;;;;;13.52;84.46;99914.88;3122233;28;20049;-70
2023/05/15 00:17:00;;;;;;;23.52;13.02;;;;;;;13.52;84.58;99908.81;3132597;28;20078;-70
2023/05/15 00:18:32;;;;;;;27.08;13.13;;;;;;;13.45;84.35;99902.22;3132268;28;20056;-70
2023/05/15 00:20:06;;;;;;;23.27;13.80;;;;;;;13.43;84.35;99891.84;3129931;28;20114;-70
2023/05/15 00:21:39;;;;;;;23.60;13.63;;;;;;;13.53;84.37;99908.72;3131648;28;20115;-70
2023/05/15 00:23:10;;;;;;;24.02;13.75;;;;;;;13.53;84.30;99911.31;3142882;28;20057;-70
2023/05/15 00:24:42;;;;;;;29.63;14.40;;;;;;;13.53;84.35;99913.09;3134598;28;20052;-70
2023/05/15 00:26:14;;;;;;;26.40;13.90;;;;;;;13.50;84.23;99900.19;3132432;28;20053;-70
2023/05/15 00:27:46;;;;;;;24.67;13.80;;;;;;;13.52;84.28;99909.66;3133849;28;20132;-70
2023/05/15 00:29:17;;;;;;;32.13;15.38;;;;;;;13.50;84.11;99901.03;3132231;28;20098;-70
2023/05/15 00:30:49;;;;;;;25.90;14.68;;;;;;;13.50;83.95;99905.44;3132505;28;20544;-70
2023/05/15 00:32:20;;;;;;;28.85;15.80;;;;;;;13.53;84.16;99913.09;3132301;28;20055;-70
2023/05/15 00:33:52;;;;;;;31.50;15.70;;;;;;;13.49;84.03;99909.81;3132059;28;20165;-70
2023/05/15 00:35:24;;;;;;;29.02;15.00;;;;;;;13.49;83.88;99914.19;3132555;28;20055;-70
2023/05/15 00:36:57;;;;;;;31.40;15.15;;;;;;;13.47;84.16;99916.06;3135524;28;20052;-70
2023/05/15 00:38:29;;;;;;;;;;;;;;;13.36;84.12;99907.03;3132870;28;20462;-70
2023/05/15 00:40:01;;;;;;;33.97;15.52;;;;;;;13.35;84.06;99910.56;3128402;28;20420;-70
2023/05/15 00:41:34;;;;;;;33.50;15.45;;;;;;;13.34;84.09;99901.06;3132036;28;20052;-70
2023/05/15 00:43:07;;;;;;;29.00;15.05;;;;;;;13.34;83.94;99901.06;3132312;28;20044;-70
2023/05/15 00:44:41;;;;;;;29.97;15.27;;;;;;;13.37;84.15;99907.88;3132383;28;20511;-70
2023/05/15 00:46:13;;;;;;;27.58;15.10;;;;;;;13.36;84.14;99906.19;3132259;28;20323;-70
2023/05/15 00:47:46;;;;;;;30.50;15.32;;;;;;;13.19;84.01;99870.44;3132226;28;20049;-70
2023/05/15 00:49:20;;;;;;;36.72;16.73;;;;;;;13.36;84.03;99895.72;3132164;28;20040;-70
2023/05/15 00:50:51;;;;;;;29.13;15.65;;;;;;;13.32;84.18;99881.97;3133191;28;20049;-70
2023/05/15 00:52:26;;;;;;;43.63;17.23;;;;;;;13.31;84.22;99872.44;3132868;28;20086;-70
2023/05/15 00:53:58;;;;;;;31.35;16.30;;;;;;;13.32;84.50;99879.34;3132041;28;20052;-70
2023/05/15 00:55:32;;;;;;;35.85;16.10;;;;;;;13.33;84.42;99880.19;3132933;28;20060;-70
2023/05/15 00:57:04;;;;;;;33.40;16.25;;;;;;;13.30;84.43;99880.38;3131967;28;20487;-70
2023/05/15 00:58:38;;;;;;;34.55;16.17;;;;;;;13.32;84.49;99883.75;3132549;28;20170;-70
2023/05/15 01:00:09;;;;;;;31.55;15.98;;;;;;;13.31;84.90;99880.28;3131675;28;20076;-70
2023/05/15 01:01:44;;;;;;;29.80;17.10;;;;;;;13.33;84.86;99873.19;3130432;28;20101;-70
2023/05/15 01:03:16;;;;;;;32.33;16.52;;;;;;;13.23;84.84;99856.28;3134570;28;20041;-70
2023/05/15 01:04:48;;;;;;;33.70;16.80;;;;;;;13.30;85.23;99877.75;3139769;28;20060;-70
2023/05/15 01:06:20;;;;;;;34.80;16.33;;;;;;;13.27;85.09;99857.84;3140466;28;20052;-70
2023/05/15 01:08:00;;;;;;;35.80;17.38;;;;;;;13.29;85.19;99856.00;3134924;28;20052;-70
2023/05/15 01:09:34;;;;;;;32.83;17.25;;;;;;;13.27;85.20;99857.00;3135069;28;20072;-70
2023/05/15 01:11:07;;;;;;;35.45;17.15;;;;;;;13.30;85.34;99860.28;3134614;28;20656;-70
2023/05/15 01:12:40;;;;;;;;;;;;;;;13.23;85.11;99845.84;3134978;28;20049;-70
2023/05/15 01:14:12;;;;;;;37.40;17.17;;;;;;;13.22;85.39;99844.13;3133543;28;19924;-70
2023/05/15 01:15:44;;;;;;;41.33;17.83;;;;;;;13.16;85.59;99820.94;3125625;28;20095;-70
2023/05/15 01:17:15;;;;;;;32.55;17.38;;;;;;;13.24;85.85;99842.28;3134338;28;20048;-70
2023/05/15 01:18:46;;;;;;;34.95;17.88;;;;;;;13.23;85.66;99842.38;3137966;28;20049;-70
2023/05/15 01:20:20;;;;;;;34.10;18.17;;;;;;;13.25;85.77;99841.41;3134550;28;20465;-69
2023/05/15 01:22:29;;;;;;;40.30;17.80;;;;;;;13.18;85.69;99829.56;3134833;28;20071;-70
2023/05/15 01:24:20;;;;;;;32.58;17.92;;;;;;;13.21;85.81;99826.75;3121670;28;20704;-69
2023/05/15 01:26:24;;;;;;;54.33;20.15;;;;;;;13.20;85.75;99830.31;3134456;28;20049;-70
2023/05/15 01:28:02;;;;;;;30.83;16.17;;;;;;;13.20;85.97;99832.94;3134620;28;20056;-69
2023/05/15 01:29:40;;;;;;;29.50;17.65;;;;;;;13.16;86.06;99828.78;3134516;28;20057;-70
2023/05/15 01:31:16;;;;;;;35.25;17.63;;;;;;;13.24;86.28;99826.59;3134380;28;20158;-69
2023/05/15 01:32:55;;;;;;;36.05;18.80;;;;;;;13.25;86.27;99817.88;3139191;28;20140;-70
2023/05/15 01:34:32;;;;;;;37.95;18.50;;;;;;;13.21;86.35;99811.06;3135615;28;20128;-70
2023/05/15 01:36:11;;;;;;;38.45;17.95;;;;;;;13.23;86.40;99811.00;3134386;28;20441;-70
2023/05/15 01:37:48;;;;;;;31.95;17.80;;;;;;;13.21;86.32;99814.53;3134577;28;20056;-70
2023/05/15 01:39:25;;;;;;;33.47;16.75;;;;;;;13.18;86.39;99821.72;3134362;28;20186;-70
2023/05/15 01:41:02;;;;;;;33.42;17.85;;;;;;;13.12;86.75;99814.22;3134436;28;20056;-69
2023/05/15 01:42:35;;;;;;;34.95;17.80;;;;;;;13.20;86.50;99833.78;3134328;28;20419;-70
2023/05/15 01:44:14;;;;;;;35.35;17.95;;;;;;;13.22;87.00;99841.50;3134141;28;20056;-70
2023/05/15 01:45:46;;;;;;;37.50;18.63;;;;;;;13.23;86.99;99827.53;3134676;28;20056;-70
2023/05/15 01:47:20;;;;;;;34.97;18.60;;;;;;;13.22;86.95;99817.97;3141969;28;20044;-70
2023/05/15 01:48:55;;;;;;;33.80;18.75;;;;;;;13.20;87.08;99809.41;3137585;28;20191;-70
2023/05/15 01:50:27;;;;;;;39.33;18.08;;;;;;;13.24;87.17;99825.75;3130360;28;20045;-70
2023/05/15 01:52:12;;;;;;;35.08;18.38;;;;;;;13.22;86.95;99817.97;3134294;28;20117;-70
2023/05/15 01:53:45;;;;;;;35.72;18.98;;;;;;;13.17;87.40;99805.19;3134647;28;20041;-70
2023/05/15 01:55:19;;;;;;;;;;;;;;;13.11;87.14;99807.31;3134830;28;20699;-71
2023/05/15 01:56:52;;;;;;;31.43;18.33;;;;;;;13.09;87.42;99811.75;3129952;28;19928;-71
2023/05/15 01:58:24;;;;;;;32.10;18.20;;;;;;;13.09;87.45;99806.53;3133873;28;20115;-69
2023/05/15 01:59:58;;;;;;;33.30;18.35;;;;;;;13.09;87.67;99798.69;3134483;28;20078;-69
2023/05/15 02:01:33;;;;;;;29.75;18.20;;;;;;;13.05;87.97;99791.97;3135653;28;20064;-69
2023/05/15 02:03:06;;;;;;;32.28;18.77;;;;;;;13.02;88.04;99782.50;3127681;28;20045;-69
2023/05/15 02:04:39;;;;;;;30.38;18.92;;;;;;;12.78;88.15;99750.72;3133981;28;20139;-69
2023/05/15 02:06:12;;;;;;;31.55;20.10;;;;;;;12.96;88.46;99772.41;3133776;28;20052;-69
2023/05/15 02:07:45;;;;;;;37.60;19.67;;;;;;;12.91;88.55;99767.41;3134506;28;20049;-70
2023/05/15 02:09:17;;;;;;;32.92;18.90;;;;;;;12.93;88.92;99762.94;3133670;28;20052;-70
2023/05/15 02:10:50;;;;;;;34.05;21.40;;;;;;;12.95;88.50;99765.47;3132846;28;20049;-70
2023/05/15 02:12:23;;;;;;;34.47;19.90;;;;;;;12.92;88.91;99774.31;3132079;28;20045;-71
2023/05/15 02:13:56;;;;;;;34.80;20.00;;;;;;;12.95;88.74;99779.41;3133633;28;20045;-70
2023/05/15 02:15:30;;;;;;;;;;;;;;;12.88;88.58;99793.72;3134158;28;20442;-70
2023/05/15 02:17:01;;;;;;;32.73;20.50;;;;;;;12.88;88.87;99809.41;3133919;28;19970;-70
2023/05/15 02:18:33;;;;;;;33.60;20.10;;;;;;;12.69;89.12;99777.38;3133863;28;20307;-70
2023/05/15 02:20:05;;;;;;;31.90;19.67;;;;;;;12.87;89.21;99812.94;3133840;28;20489;-70
2023/05/15 02:21:38;;;;;;;34.80;18.60;;;;;;;12.96;88.92;99825.50;3133892;28;20518;-70
2023/05/15 02:23:09;;;;;;;35.65;20.70;;;;;;;13.00;89.17;99823.56;3134070;28;20058;-69
2023/05/15 02:24:41;;;;;;;34.40;21.48;;;;;;;13.02;88.83;99824.34;3133410;28;20518;-68
2023/05/15 02:26:24;;;;;;;34.13;20.77;;;;;;;13.06;88.92;99827.63;3133683;28;20045;-69
2023/05/15 02:27:58;;;;;;;31.10;20.70;;;;;;;13.06;88.95;99818.00;3133857;28;20053;-68
2023/05/15 02:29:36;;;;;;;31.80;18.83;;;;;;;13.07;88.84;99809.22;3141327;28;20049;-68
2023/05/15 02:31:17;;;;;;;33.10;20.05;;;;;;;13.06;88.78;99785.78;3135766;28;20179;-68
2023/05/15 02:32:57;;;;;;;29.80;18.85;;;;;;;12.99;88.88;99774.84;3133506;28;20115;-69
2023/05/15 02:34:38;;;;;;;29.42;17.70;;;;;;;13.05;88.84;99807.63;3133429;28;20551;-68
2023/05/15 02:36:13;;;;;;;28.42;17.70;;;;;;;13.06;89.21;99825.00;3133720;28;20053;-68
2023/05/15 02:37:49;;;;;;;32.38;18.65;;;;;;;13.06;89.18;99832.84;3134005;28;20049;-68
2023/05/15 02:39:23;;;;;;;30.35;19.75;;;;;;;13.05;89.06;99818.94;3133463;28;20054;-69
2023/05/15 02:40:57;;;;;;;31.67;19.65;;;;;;;13.06;89.28;99809.31;3132621;28;20111;-69
2023/05/15 02:42:31;;;;;;;28.75;18.52;;;;;;;13.08;88.97;99804.84;3128309;28;20183;-69
2023/05/15 02:44:03;;;;;;;;;;;;;;;13.03;88.84;99804.25;3131265;28;20053;-69
2023/05/15 02:45:36;;;;;;;27.55;17.20;;;;;;;13.03;88.93;99802.47;3128418;28;19925;-69
2023/05/15 02:47:11;;;;;;;29.35;19.10;;;;;;;13.03;89.07;99799.03;3128350;28;20091;-69
2023/05/15 02:48:44;;;;;;;29.48;17.60;;;;;;;13.01;89.03;99793.03;3126924;28;20091;-69
2023/05/15 02:50:17;;;;;;;29.98;17.95;;;;;;;13.03;88.88;99794.63;3128227;28;20470;-69
2023/05/15 02:51:48;;;;;;;27.90;17.45;;;;;;;13.03;89.00;99794.63;3126186;28;20057;-69
2023/05/15 02:53:19;;;;;;;27.80;18.13;;;;;;;13.05;88.78;99798.03;3122232;28;20099;-69
2023/05/15 02:54:52;;;;;;;28.27;17.85;;;;;;;13.07;88.81;99796.16;3128407;28;20646;-69
2023/05/15 02:56:24;;;;;;;24.83;16.80;;;;;;;13.07;88.73;99795.31;3127863;28;20053;-69
2023/05/15 02:57:54;;;;;;;25.00;17.05;;;;;;;13.06;88.50;99796.25;3134937;28;20127;-69
2023/05/15 02:59:26;;;;;;;29.52;18.23;;;;;;;13.07;88.43;99795.31;3128066;28;20091;-69
2023/05/15 03:00:57;;;;;;;30.98;19.13;;;;;;;13.07;88.15;99792.69;3127942;28;20049;-69
2023/05/15 03:02:31;;;;;;;29.75;18.55;;;;;;;13.07;88.22;99783.06;3119882;28;20548;-69
2023/05/15 03:04:02;;;;;;;26.73;18.27;;;;;;;13.03;88.24;99780.72;3128127;28;20045;-70
2023/05/15 03:05:33;;;;;;;27.65;18.48;;;;;;;13.05;88.18;99792.78;3127977;28;20115;-69
2023/05/15 03:07:05;;;;;;;30.55;18.55;;;;;;;13.03;88.14;99799.88;3128372;28;20565;-69
2023/05/15 03:08:37;;;;;;;29.83;19.27;;;;;;;13.05;88.07;99807.63;3128147;28;20063;-69
2023/05/15 03:10:09;;;;;;;28.83;19.02;;;;;;;12.68;88.07;99744.31;3128145;28;20091;-69
2023/05/15 03:11:40;;;;;;;29.38;19.85;;;;;;;12.90;88.06;99780.56;3136369;28;20555;-69
2023/05/15 03:13:12;;;;;;;31.25;19.75;;;;;;;13.08;88.36;99807.47;3130894;28;20056;-69
2023/05/15 03:14:44;;;;;;;29.15;20.50;;;;;;;13.08;88.50;99810.09;3122544;28;20049;-70
2023/05/15 03:16:15;;;;;;;29.67;18.95;;;;;;;13.08;88.39;99804.84;3123244;28;20514;-69
2023/05/15 03:17:48;;;;;;;32.58;19.00;;;;;;;13.07;88.11;99808.38;3128036;28;20059;-69
2023/05/15 03:19:20;;;;;;;;;;;;;;;13.01;88.19;99806.09;3128550;28;20480;-70
2023/05/15 03:20:53;;;;;;;32.35;19.52;;;;;;;13.00;88.54;99799.19;3127562;28;19929;-69
2023/05/15 03:22:24;;;;;;;28.70;19.27;;;;;;;12.96;88.45;99781.06;3127932;28;20526;-69
2023/05/15 03:23:56;;;;;;;37.90;22.42;;;;;;;13.01;88.51;99793.88;3127181;28;20056;-69
2023/05/15 03:25:28;;;;;;;37.78;22.40;;;;;;;13.01;88.36;99790.41;3130302;28;20049;-69
2023/05/15 03:26:59;;;;;;;34.15;21.35;;;;;;;12.98;88.50;99784.47;3127895;28;20059;-70
2023/05/15 03:28:31;;;;;;;31.80;20.17;;;;;;;12.92;88.50;99779.53;3127850;28;20052;-69
2023/05/15 03:30:02;;;;;;;30.90;20.77;;;;;;;13.00;88.57;99793.97;3127555;28;20057;-69
2023/05/15 03:31:34;;;;;;;36.58;20.75;;;;;;;12.74;88.61;99759.66;3128435;28;20087;-70
2023/05/15 03:33:08;;;;;;;36.78;23.20;;;;;;;13.01;88.87;99795.66;3127807;28;20045;-69
2023/05/15 03:34:38;;;;;;;35.00;22.25;;;;;;;13.01;89.12;99793.03;3115671;28;20583;-68
2023/05/15 03:36:10;;;;;;;38.47;23.50;;;;;;;12.99;89.08;99790.53;3126868;28;20085;-69
2023/05/15 03:37:42;;;;;;;38.65;22.13;;;;;;;13.03;89.14;99799.88;3127901;28;20143;-69
2023/05/15 03:39:14;;;;;;;38.13;21.90;;;;;;;13.03;89.38;99804.25;3130845;28;20044;-68
2023/05/15 03:40:46;;;;;;;38.90;21.88;;;;;;;13.01;89.42;99796.50;3130377;28;20963;-69
2023/05/15 03:42:22;;;;;;;37.92;22.00;;;;;;;12.84;89.45;99766.06;3127302;28;20049;-69
2023/05/15 03:43:54;;;;;;;40.78;22.42;;;;;;;12.99;89.67;99785.28;3127341;28;20079;-68
2023/05/15 03:45:26;;;;;;;38.70;24.52;;;;;;;12.98;89.88;99788.81;3127430;28;20094;-69
2023/05/15 03:46:58;;;;;;;40.38;21.98;;;;;;;12.99;89.86;99780.06;3127799;28;20102;-69
2023/05/15 03:48:30;;;;;;;34.80;20.95;;;;;;;13.03;89.96;99785.97;3122193;28;20510;-68
2023/05/15 03:50:02;;;;;;;37.80;22.33;;;;;;;13.04;89.85;99782.41;3124357;28;20053;-68
2023/05/15 03:51:34;;;;;;;40.03;21.83;;;;;;;13.05;89.89;99789.34;3127546;28;20095;-68
2023/05/15 03:53:05;;;;;;;40.05;22.70;;;;;;;13.03;89.77;99784.19;3129399;28;20055;-68
2023/05/15 03:54:37;;;;;;;38.00;21.48;;;;;;;13.09;89.90;99790.84;3136166;28;20041;-68
2023/05/15 03:56:08;;;;;;;43.92;22.65;;;;;;;13.09;89.87;99796.91;3127501;28;20049;-68
2023/05/15 03:57:41;;;;;;;43.80;23.63;;;;;;;13.01;89.69;99782.56;3127728;28;20109;-68
2023/05/15 03:59:13;;;;;;;38.78;22.30;;;;;;;13.08;89.92;99797.84;3127816;28;20053;-69
2023/05/15 04:00:45;;;;;;;38.08;22.10;;;;;;;13.08;89.81;99795.25;3127793;28;20119;-68
2023/05/15 04:02:17;;;;;;;42.47;23.77;;;;;;;13.08;89.92;99794.41;3119689;28;20160;-68
2023/05/15 04:03:49;;;;;;;36.63;22.02;;;;;;;13.11;90.06;99791.63;3127850;28;20057;-70
2023/05/15 04:05:21;;;;;;;34.20;22.52;;;;;;;13.14;89.93;99794.91;3127506;28;20526;-70
2023/05/15 04:06:52;;;;;;;37.88;21.77;;;;;;;13.17;89.76;99793.88;3127377;28;20053;-71
2023/05/15 04:08:24;;;;;;;36.38;21.98;;;;;;;13.19;89.72;99799.84;3129820;28;20071;-71
2023/05/15 04:10:00;;;;;;;50.05;24.23;;;;;;;13.21;89.86;99800.63;3127440;28;20071;-70
2023/05/15 04:11:33;;;;;;;40.55;23.08;;;;;;;13.21;89.96;99798.84;3127638;28;20063;-70
2023/05/15 04:13:05;;;;;;;;;;;;;;;13.16;89.98;99792.19;3124533;28;20053;-71
2023/05/15 04:14:37;;;;;;;33.65;20.48;;;;;;;13.17;90.03;99778.19;3122846;28;19925;-70
2023/05/15 04:16:08;;;;;;;38.63;22.17;;;;;;;13.25;90.21;99786.50;3121542;28;20049;-71
2023/05/15 04:17:39;;;;;;;42.33;23.27;;;;;;;13.26;90.19;99774.25;3127669;28;20053;-69
2023/05/15 04:19:13;;;;;;;43.47;24.38;;;;;;;13.35;90.39;99786.81;3126886;28;20638;-69
2023/05/15 04:20:45;;;;;;;45.85;22.63;;;;;;;13.39;90.33;99783.91;3126848;28;20049;-68
2023/05/15 04:22:15;;;;;;;31.98;21.38;;;;;;;13.45;90.25;99781.88;3137861;28;20539;-66
2023/05/15 04:23:47;;;;;;;36.58;21.92;;;;;;;13.48;90.00;99776.47;3128381;28;20367;-66
2023/05/15 04:25:19;;;;;;;32.65;20.88;;;;;;;13.31;90.31;99746.91;3127011;28;20370;-67
2023/05/15 04:26:51;;;;;;;35.25;20.67;;;;;;;13.55;89.87;99783.06;3127093;28;20187;-67
2023/05/15 04:28:23;;;;;;;33.47;20.75;;;;;;;13.57;89.79;99784.63;3127024;28;20853;-68
2023/05/15 04:29:54;;;;;;;34.63;21.90;;;;;;;13.61;89.50;99793.16;3127118;28;20667;-69
2023/05/15 04:31:26;;;;;;;38.95;21.77;;;;;;;13.62;89.42;99797.47;3127310;28;20500;-67
2023/05/15 04:32:58;;;;;;;36.45;21.13;;;;;;;13.60;89.40;99801.94;3127321;28;20057;-69
2023/05/15 04:34:31;;;;;;;37.53;20.17;;;;;;;13.62;89.10;99805.31;3127465;28;20044;-70
2023/05/15 04:36:03;;;;;;;34.00;19.45;;;;;;;13.67;88.88;99799.81;3129362;28;20496;-67
2023/05/15 04:37:35;;;;;;;36.53;20.23;;;;;;;13.69;88.73;99798.78;3129072;28;20134;-69
2023/05/15 04:39:08;;;;;;;34.28;19.95;;;;;;;13.71;88.79;99788.22;3127358;28;20126;-68
2023/05/15 04:40:40;;;;;;;32.25;20.33;;;;;;;13.73;88.63;99797.69;3127312;28;20312;-69
2023/05/15 04:42:19;;;;;;;34.95;21.25;;;;;;;13.77;88.57;99809.66;3126809;28;20230;-68
2023/05/15 04:43:51;;;;;;;39.72;20.50;;;;;;;13.79;88.62;99807.78;3128270;28;20048;-70
2023/05/15 04:45:24;;;;;;;44.35;28.33;;;;;;;13.78;88.35;99806.13;3126769;28;20108;-69
2023/05/15 04:46:56;;;;;;;58.75;34.85;;;;;;;13.83;88.19;99809.28;3127243;28;20060;-70
2023/05/15 04:48:28;;;;;;;60.85;37.47;;;;;;;13.87;88.04;99804.72;3127140;28;20142;-69
2023/05/15 04:50:01;;;;;;;42.95;23.02;;;;;;;13.85;87.82;99807.44;3133684;28;20064;-69
2023/05/15 04:51:37;;;;;;;33.15;20.90;;;;;;;13.92;87.84;99812.31;3119828;28;20058;-74
2023/05/15 04:53:08;;;;;;;49.33;24.63;;;;;;;13.94;87.92;99815.69;3121698;28;20049;-70
2023/05/15 04:54:40;;;;;;;72.43;42.60;;;;;;;13.94;87.67;99816.53;3126669;28;20052;-75
2023/05/15 04:56:12;;;;;;;38.47;23.70;;;;;;;13.97;87.82;99812.88;3126526;28;20087;-70
2023/05/15 04:57:46;;;;;;;66.22;39.67;;;;;;;13.98;87.70;99817.19;3119598;28;20053;-71
2023/05/15 04:59:19;;;;;;;39.60;23.95;;;;;;;13.99;87.66;99824.97;3123047;28;20134;-69
2023/05/15 05:00:51;;;;;;;34.53;21.60;;;;;;;14.02;87.42;99824.78;3126044;28;20641;-72
2023/05/15 05:02:23;;;;;;;33.90;21.60;;;;;;;13.99;86.89;99818.84;3126642;28;20049;-73
2023/05/15 05:03:55;;;;;;;39.65;20.80;;;;;;;13.77;87.16;99783.47;3132298;28;20052;-72
2023/05/15 05:05:28;;;;;;;39.10;20.67;;;;;;;14.00;86.78;99824.00;3127538;28;20041;-75
2023/05/15 05:07:03;;;;;;;;;;;;;;;13.91;87.02;99818.50;3124695;28;20052;-72
2023/05/15 05:08:35;;;;;;;;;;;;;;;13.81;86.97;99819.03;3125914;28;19924;-72
2023/05/15 05:10:08;;;;;;;41.03;22.27;;;;;;;13.83;87.08;99818.91;3126754;28;20016;-72
2023/05/15 05:11:42;;;;;;;;;;;;;;;13.81;87.17;99820.78;3127225;28;20061;-71
2023/05/15 05:13:14;;;;;;;42.78;23.75;;;;;;;13.81;87.12;99811.16;3126835;28;20046;-71
2023/05/15 05:14:46;;;;;;;40.95;24.27;;;;;;;13.85;86.98;99815.28;3115340;28;20115;-71
2023/05/15 05:16:19;;;;;;;41.10;23.95;;;;;;;13.89;87.00;99813.31;3123567;28;20061;-70
2023/05/15 05:17:51;;;;;;;43.53;22.63;;;;;;;13.92;86.93;99812.31;3131723;28;20052;-72
2023/05/15 05:19:23;;;;;;;38.75;22.10;;;;;;;13.95;87.01;99812.13;3130172;28;20071;-72
2023/05/15 05:21:01;;;;;;;35.67;22.52;;;;;;;13.97;86.84;99815.50;3126833;28;20072;-71
2023/05/15 05:22:33;;;;;;;37.92;22.17;;;;;;;13.99;86.81;99816.22;3126533;28;20115;-69
2023/05/15 05:24:05;;;;;;;38.20;21.65;;;;;;;14.01;86.52;99823.06;3127048;28;20052;-72
2023/05/15 05:25:37;;;;;;;43.03;23.58;;;;;;;14.07;86.77;99827.09;3126392;28;20502;-74
2023/05/15 05:27:17;;;;;;;33.78;20.15;;;;;;;14.12;86.56;99825.06;3126089;28;20599;-71
2023/05/15 05:28:49;;;;;;;36.28;21.48;;;;;;;14.13;86.37;99825.91;3125762;28;20049;-70
2023/05/15 05:30:22;;;;;;;36.43;19.47;;;;;;;14.18;86.38;99819.47;3126892;28;20088;-73
2023/05/15 05:31:57;;;;;;;37.38;20.80;;;;;;;14.25;86.19;99820.75;3123970;28;20044;-69
2023/05/15 05:33:28;;;;;;;36.33;19.95;;;;;;;14.31;85.87;99812.53;3126977;28;20062;-69
2023/05/15 05:35:00;;;;;;;32.08;19.50;;;;;;;14.13;85.83;99773.53;3126710;28;20608;-69
2023/05/15 05:36:39;;;;;;;35.40;20.23;;;;;;;14.47;85.52;99814.25;3126509;28;20060;-72
2023/05/15 05:38:14;;;;;;;34.08;20.30;;;;;;;14.52;85.18;99815.69;3125129;28;20064;-70
2023/05/15 05:39:47;;;;;;;37.00;20.40;;;;;;;14.55;85.02;99818.13;3125921;28;20529;-71
2023/05/15 05:41:22;;;;;;;35.25;19.52;;;;;;;14.59;84.56;99826.63;3126241;28;20517;-68
2023/05/15 05:42:57;;;;;;;42.33;20.58;;;;;;;14.63;84.35;99822.88;3126877;28;20056;-67
2023/05/15 05:44:29;;;;;;;29.20;18.55;;;;;;;14.65;84.05;99823.63;3126269;28;20486;-68
2023/05/15 05:46:07;;;;;;;34.20;18.65;;;;;;;14.63;83.69;99827.28;3131662;28;20045;-67
2023/05/15 05:47:43;;;;;;;35.42;18.88;;;;;;;14.64;83.45;99821.97;3130745;28;20053;-67
2023/05/15 05:49:18;;;;;;;31.88;20.08;;;;;;;14.67;83.35;99820.91;3128843;28;20056;-68
2023/05/15 05:50:50;;;;;;;36.75;20.38;;;;;;;14.74;83.12;99823.06;3128350;28;20155;-66
2023/05/15 05:52:32;;;;;;;32.47;20.50;;;;;;;14.79;82.57;99817.53;3128192;28;20450;-67
2023/05/15 05:54:20;;;;;;;36.80;20.70;;;;;;;14.84;82.51;99822.47;3128032;28;20196;-68
2023/05/15 05:56:23;;;;;;;32.80;18.85;;;;;;;14.86;82.12;99826.69;3128554;28;20057;-66
2023/05/15 05:57:59;;;;;;;35.40;20.17;;;;;;;14.85;82.07;99825.03;3108042;28;20092;-68
2023/05/15 05:59:39;;;;;;;34.65;21.13;;;;;;;14.85;81.97;99819.78;3117524;28;20106;-68
2023/05/15 06:01:40;;;;;;;37.47;19.52;;;;;;;14.87;81.63;99822.28;3116533;28;20491;-67
2023/05/15 06:03:15;;;;;;;36.47;20.08;;;;;;;14.91;81.78;99822.00;3111099;28;20132;-69
2023/05/15 06:04:50;;;;;;;37.00;20.15;;;;;;;14.95;81.56;99814.78;3128304;28;20055;-72
2023/05/15 06:06:29;;;;;;;41.40;19.55;;;;;;;15.00;81.42;99812.72;3128078;28;20088;-70
2023/05/15 06:08:04;;;;;;;35.28;18.60;;;;;;;14.75;80.80;99776.72;3128087;28;20053;-71
2023/05/15 06:09:36;;;;;;;33.90;19.58;;;;;;;15.07;80.59;99818.41;3128500;28;20500;-72
2023/05/15 06:11:24;;;;;;;30.30;17.40;;;;;;;15.11;80.41;99831.22;3128210;28;20071;-70
2023/05/15 06:13:05;;;;;;;34.58;19.60;;;;;;;15.13;80.18;99824.09;3127652;28;20061;-68
2023/05/15 06:14:42;;;;;;;32.63;18.60;;;;;;;15.13;79.93;99824.09;3125224;28;20525;-72
2023/05/15 06:16:14;;;;;;;35.92;19.90;;;;;;;15.17;79.53;99836.13;3123998;28;20075;-71
2023/05/15 06:17:46;;;;;;;30.60;17.92;;;;;;;15.18;79.69;99842.19;3128578;28;20063;-71
2023/05/15 06:19:34;;;;;;;31.80;18.92;;;;;;;15.21;79.35;99840.22;3128050;28;20055;-64
2023/05/15 06:21:12;;;;;;;34.05;19.70;;;;;;;15.24;79.25;99824.28;3128620;28;20057;-67
2023/05/15 06:25:16;;;;;;;30.45;18.58;;;;;;;15.20;78.57;99814.94;3091307;28;20659;-67
2023/05/15 06:26:48;;;;;;;33.55;20.67;;;;;;;15.30;78.28;99819.59;3116826;28;20164;-66
2023/05/15 06:28:30;;;;;;;33.20;19.83;;;;;;;15.33;78.20;99809.72;3134348;28;20059;-66
2023/05/15 06:32:42;;;;;;;31.45;18.35;;;;;;;15.31;77.82;99810.75;3095194;28;20501;-65
2023/05/15 06:34:32;;;;;;;32.17;18.58;;;;;;;15.28;77.51;99803.09;3121790;28;20053;-64
2023/05/15 06:36:16;;;;;;;32.15;20.17;;;;;;;15.22;76.76;99802.53;3129712;28;20045;-67
2023/05/15 06:37:50;;;;;;;36.70;21.50;;;;;;;14.98;76.34;99773.47;3129638;28;20088;-69
2023/05/15 06:39:39;;;;;;;36.33;20.95;;;;;;;15.18;76.62;99801.06;3132790;28;20047;-68
2023/05/15 06:41:21;;;;;;;35.13;19.30;;;;;;;15.15;76.52;99803.88;3131695;28;20060;-67
2023/05/15 06:43:11;;;;;;;42.78;19.88;;;;;;;15.15;76.68;99803.88;3132997;28;20135;-68
2023/05/15 06:45:12;;;;;;;;;;;;;;;;;;;;;
2023/05/15 06:46:52;;;;;;;29.52;17.67;;;;;;;15.16;77.04;99813.41;3114633;28;20071;-66
2023/05/15 06:48:36;;;;;;;29.48;16.90;;;;;;;15.17;76.84;99803.75;3120801;28;20079;-67
2023/05/15 06:50:19;;;;;;;30.02;16.15;;;;;;;15.19;76.75;99804.50;3126968;28;20582;-68
2023/05/15 06:52:15;;;;;;;34.70;15.20;;;;;;;14.89;76.21;99762.75;3122860;28;20053;-67
2023/05/15 06:54:04;;;;;;;23.42;15.25;;;;;;;15.15;76.04;99808.28;3125434;28;20045;-69
2023/05/15 06:55:39;;;;;;;26.52;15.45;;;;;;;15.10;75.57;99813.81;3133080;28;20510;-69
2023/05/15 06:57:13;;;;;;;24.17;14.90;;;;;;;15.12;75.32;99816.34;3139383;28;20056;-68
2023/05/15 06:58:55;;;;;;;24.90;15.82;;;;;;;15.11;75.24;99814.66;3132676;28;20078;-68
2023/05/15 07:00:27;;;;;;;30.70;15.95;;;;;;;15.01;75.16;99798.66;3132884;28;20045;-68
2023/05/15 07:02:00;;;;;;;28.45;15.43;;;;;;;15.07;74.90;99803.53;3132963;28;20051;-66
2023/05/15 07:03:38;;;;;;;25.53;16.03;;;;;;;15.05;74.89;99799.31;3133203;28;20060;-65
2023/05/15 07:05:11;;;;;;;26.90;16.58;;;;;;;15.00;74.78;99783.88;3132804;28;20312;-68
2023/05/15 07:07:01;;;;;;;25.43;15.47;;;;;;;14.98;74.93;99793.63;3132890;28;20059;-67
2023/05/15 07:08:50;;;;;;;25.20;15.85;;;;;;;14.95;74.76;99805.13;3132696;28;20533;-67
2023/05/15 07:10:45;;;;;;;27.02;16.65;;;;;;;14.95;74.93;99799.06;3137220;28;20102;-69
2023/05/15 07:12:26;;;;;;;27.10;15.98;;;;;;;14.94;74.96;99797.38;3122400;28;20046;-67
2023/05/15 07:14:00;;;;;;;26.45;16.13;;;;;;;14.91;74.93;99793.16;3132427;28;20445;-67
2023/05/15 07:15:51;;;;;;;43.33;24.55;;;;;;;14.85;74.94;99784.81;3122872;28;20088;-66
2023/05/15 07:17:27;;;;;;;29.02;17.02;;;;;;;14.87;75.20;99798.69;3132940;28;20197;-66
2023/05/15 07:19:06;;;;;;;26.40;17.45;;;;;;;14.86;75.35;99800.47;3132488;28;20052;-67
2023/05/15 07:20:45;;;;;;;29.33;20.50;;;;;;;14.84;75.29;99801.50;3133000;28;20083;-68
2023/05/15 07:22:17;;;;;;;29.67;19.40;;;;;;;14.83;75.31;99797.22;3131801;28;20506;-66
2023/05/15 07:24:00;;;;;;;32.38;18.77;;;;;;;14.82;75.46;99796.38;3126932;28;20061;-66